Time;durP1;ratioP1;P1;durP2;ratioP2;P2;SDS_P1;SDS_P2;PMS_P1;PMS_P2;Temp;Humidity;BMP_temperature;BMP_pressure;BME280_temperature;BME280_humidity;BME280_pressure;Samples;Min_cycle;Max_cycle;Signal;HPM_P1;HPM_P2
2023/07/15 00:03:00;;;;;;;;;;;;;;;26.30;42.51;100599.34;2265303;77;50673;-75
2023/07/15 00:06:02;;;;;;;;;;;;;;;26.30;42.44;100599.34;2243966;78;51423;-75
2023/07/15 00:09:04;;;;;;;;;;;;;;;26.31;42.64;100598.80;2245298;77;52564;-74
2023/07/15 00:12:07;;;;;;;;;;;;;;;26.31;42.62;100585.23;2255260;77;50792;-75
2023/07/15 00:15:09;;;;;;;;;;;;;;;26.31;42.76;100580.66;2301213;77;50448;-75
2023/07/15 00:18:14;;;;;;;;;;;;;;;26.30;42.82;100576.28;2267465;77;50477;-75
2023/07/15 00:21:20;;;;;;;;;;;;;;;26.31;42.88;100578.45;2301476;77;22390;-75
2023/07/15 00:24:21;;;;;;;;;;;;;;;26.31;42.81;100569.81;2301136;77;50295;-74
2023/07/15 00:27:24;;;;;;;;;;;;;;;26.31;42.83;100567.09;2301027;77;50645;-75
2023/07/15 00:30:26;;;;;;;;;;;;;;;26.31;42.76;100569.81;2301269;77;50673;-73
2023/07/15 00:33:28;;;;;;;;;;;;;;;26.32;42.71;100557.06;2267577;77;49659;-74
2023/07/15 00:36:31;;;;;;;;;;;;;;;26.32;42.63;100555.17;2268113;77;51538;-74
2023/07/15 00:39:33;;;;;;;;;;;;;;;26.32;42.58;100547.03;2259675;77;50791;-74
2023/07/15 00:42:53;;;;;;;;;;;;;;;26.33;42.57;100549.20;2287459;77;50331;-74
2023/07/15 00:46:13;;;;;;;;;;;;;;;26.31;42.56;100541.33;2267711;77;52635;-74
2023/07/15 00:49:25;;;;;;;;;;;;;;;26.31;42.52;100545.91;2301214;77;50755;-74
2023/07/15 00:52:24;;;;;;;;;;;;;;;26.29;42.47;100537.48;2300348;77;22305;-74
2023/07/15 00:55:27;;;;;;;;;;;;;;;26.29;42.44;100534.77;2301094;77;51606;-74
2023/07/15 00:58:28;;;;;;;;;;;;;;;26.28;42.45;100539.91;2301201;77;22320;-77
2023/07/15 01:01:30;;;;;;;;;;;;;;;26.29;42.36;100542.09;2301194;77;50823;-74
2023/07/15 01:04:32;;;;;;;;;;;;;;;26.30;42.33;100536.95;2301242;77;51534;-74
2023/07/15 01:07:33;;;;;;;;;;;;;;;26.31;42.38;100535.05;2267595;77;51426;-74
2023/07/15 01:10:35;;;;;;;;;;;;;;;26.29;42.39;100531.23;2257333;77;52390;-75
2023/07/15 01:13:36;;;;;;;;;;;;;;;26.29;42.39;100539.38;2280013;77;50609;-74
2023/07/15 01:16:39;;;;;;;;;;;;;;;26.29;42.34;100525.81;2243704;78;51438;-74
2023/07/15 01:19:41;;;;;;;;;;;;;;;26.28;42.45;100531.78;2265236;78;50048;-74
2023/07/15 01:22:42;;;;;;;;;;;;;;;26.27;42.29;100530.11;2219635;78;51163;-74
2023/07/15 01:25:44;;;;;;;;;;;;;;;26.28;42.35;100525.00;2243929;78;50267;-75
2023/07/15 01:28:47;;;;;;;;;;;;;;;26.30;42.30;100520.67;2265004;78;50032;-74
2023/07/15 01:31:49;;;;;;;;;;;;;;;26.28;42.37;100518.72;2265130;78;51490;-74
2023/07/15 01:34:50;;;;;;;;;;;;;;;26.28;42.46;100513.30;2208754;78;50051;-74
2023/07/15 01:37:52;;;;;;;;;;;;;;;26.28;42.36;100510.08;2243892;78;50408;-75
2023/07/15 01:40:54;;;;;;;;;;;;;;;26.29;42.28;100503.58;2277250;77;51540;-75
2023/07/15 01:43:56;;;;;;;;;;;;;;;26.31;42.21;100498.43;2289817;77;50246;-75
2023/07/15 01:46:57;;;;;;;;;;;;;;;26.31;42.20;100495.72;2242990;77;50930;-74
2023/07/15 01:49:59;;;;;;;;;;;;;;;26.31;42.07;100493.86;2267949;77;50079;-75
2023/07/15 01:53:00;;;;;;;;;;;;;;;26.31;42.01;100483.52;2301277;77;50722;-74
2023/07/15 01:56:02;;;;;;;;;;;;;;;26.32;41.99;100486.54;2267724;77;50239;-74
2023/07/15 01:59:04;;;;;;;;;;;;;;;26.31;41.90;100477.58;2242945;77;51273;-75
2023/07/15 02:02:05;;;;;;;;;;;;;;;26.31;41.86;100486.23;2301186;77;50271;-75
2023/07/15 02:05:07;;;;;;;;;;;;;;;26.31;41.85;100472.66;2301221;77;50530;-74
2023/07/15 02:08:09;;;;;;;;;;;;;;;26.29;41.89;100472.38;2267488;77;51455;-75
2023/07/15 02:11:10;;;;;;;;;;;;;;;26.30;41.88;100473.20;2219539;77;52405;-75
2023/07/15 02:14:12;;;;;;;;;;;;;;;26.30;41.80;100477.27;2269519;77;50380;-74
2023/07/15 02:17:13;;;;;;;;;;;;;;;26.31;41.75;100480.80;2302782;77;50441;-74
2023/07/15 02:20:15;;;;;;;;;;;;;;;26.29;41.81;100476.45;2269989;77;50090;-73
2023/07/15 02:23:17;;;;;;;;;;;;;;;26.28;41.75;100482.95;2245134;77;52351;-73
2023/07/15 02:26:18;;;;;;;;;;;;;;;26.28;41.73;100478.03;2269292;77;51501;-75
2023/07/15 02:29:20;;;;;;;;;;;;;;;26.29;41.71;100486.48;2302955;77;52179;-75
2023/07/15 02:32:35;;;;;;;;;;;;;;;26.27;41.68;100479.92;2302996;76;51405;-74
2023/07/15 02:35:39;;;;;;;;;;;;;;;26.26;41.62;100468.80;2268363;77;51308;-75
2023/07/15 02:38:41;;;;;;;;;;;;;;;26.26;41.60;100471.51;2269548;77;50301;-75
2023/07/15 02:41:44;;;;;;;;;;;;;;;26.25;41.54;100477.98;2300742;77;50275;-75
2023/07/15 02:44:45;;;;;;;;;;;;;;;26.27;41.52;100473.69;2301105;77;51612;-75
2023/07/15 02:47:47;;;;;;;;;;;;;;;26.25;41.54;100466.31;2267517;77;51012;-75
2023/07/15 02:50:52;;;;;;;;;;;;;;;26.26;41.54;100470.69;2301166;77;51594;-75
2023/07/15 02:53:55;;;;;;;;;;;;;;;26.26;41.56;100474.22;2301110;77;51360;-74
2023/07/15 02:56:57;;;;;;;;;;;;;;;26.25;41.58;100468.48;2300991;77;50269;-74
2023/07/15 02:59:58;;;;;;;;;;;;;;;26.24;41.64;100472.27;2243151;77;51696;-74
2023/07/15 03:03:00;;;;;;;;;;;;;;;26.25;41.53;100476.63;2267978;77;51586;-73
2023/07/15 03:06:02;;;;;;;;;;;;;;;26.25;41.70;100473.09;2267849;77;51469;-73
2023/07/15 03:09:04;;;;;;;;;;;;;;;26.25;41.64;100470.38;2300627;76;50773;-73
2023/07/15 03:12:06;;;;;;;;;;;;;;;26.24;41.71;100465.49;2237627;78;51197;-73
2023/07/15 03:15:09;;;;;;;;;;;;;;;26.23;41.61;100459.79;2265155;78;51452;-74
2023/07/15 03:18:11;;;;;;;;;;;;;;;26.25;41.62;100464.95;2232936;78;50392;-75
2023/07/15 03:21:13;;;;;;;;;;;;;;;26.24;41.62;100466.84;2265033;78;51483;-74
2023/07/15 03:24:15;;;;;;;;;;;;;;;26.24;41.68;100467.39;2265100;78;51442;-73
2023/07/15 03:27:16;;;;;;;;;;;;;;;26.24;41.63;100464.14;2232434;78;50846;-74
2023/07/15 03:30:18;;;;;;;;;;;;;;;26.24;41.68;100463.32;2232700;78;51440;-74
2023/07/15 03:33:19;;;;;;;;;;;;;;;26.24;41.63;100450.58;2264978;77;50607;-73
2023/07/15 03:36:22;;;;;;;;;;;;;;;26.22;41.63;100449.98;2232210;78;52655;-73
2023/07/15 03:39:24;;;;;;;;;;;;;;;26.23;41.60;100448.94;2269246;77;50555;-72
2023/07/15 03:42:26;;;;;;;;;;;;;;;26.24;41.52;100447.05;2301758;77;51568;-73
2023/07/15 03:45:27;;;;;;;;;;;;;;;26.23;41.54;100447.58;2243221;77;51028;-73
2023/07/15 03:48:29;;;;;;;;;;;;;;;26.22;41.52;100444.56;2242901;77;53564;-75
2023/07/15 03:51:30;;;;;;;;;;;;;;;26.23;41.42;100440.80;2268039;77;51446;-74
2023/07/15 03:54:35;;;;;;;;;;;;;;;26.24;41.39;100434.84;2301166;77;52302;-76
2023/07/15 03:57:36;;;;;;;;;;;;;;;26.22;41.45;100435.61;2268219;77;51525;-75
2023/07/15 04:00:38;;;;;;;;;;;;;;;26.23;41.39;100434.53;2242845;77;52414;-75
2023/07/15 04:03:39;;;;;;;;;;;;;;;26.22;41.43;100431.53;2267836;77;50281;-75
2023/07/15 04:06:41;;;;;;;;;;;;;;;26.21;41.45;100432.08;2300928;77;50268;-75
2023/07/15 04:09:42;;;;;;;;;;;;;;;26.22;41.45;100436.96;2300467;77;50630;-75
2023/07/15 04:12:44;;;;;;;;;;;;;;;26.22;41.39;100436.96;2255919;77;52410;-75
2023/07/15 04:15:46;;;;;;;;;;;;;;;26.21;41.43;100426.65;2267886;77;52393;-75
2023/07/15 04:18:47;;;;;;;;;;;;;;;26.22;41.39;100426.93;2267907;77;51423;-77
2023/07/15 04:21:49;;;;;;;;;;;;;;;26.23;41.39;100425.03;2268067;77;51533;-77
2023/07/15 04:24:50;;;;;;;;;;;;;;;26.16;40.46;100425.19;2267682;77;51166;-77
2023/07/15 04:27:52;;;;;;;;;;;;;;;26.04;39.88;100418.95;2267597;77;50232;-77
2023/07/15 04:30:54;;;;;;;;;;;;;;;25.89;39.67;100413.20;2267953;77;50549;-78
2023/07/15 04:33:56;;;;;;;;;;;;;;;25.76;40.24;100419.13;2245933;78;50371;-76
2023/07/15 04:36:57;;;;;;;;;;;;;;;25.52;40.45;100416.14;2279528;76;51033;-76
2023/07/15 04:40:01;;;;;;;;;;;;;;;25.46;40.47;100415.70;2292966;76;51515;-77
2023/07/15 04:43:02;;;;;;;;;;;;;;;25.45;40.54;100419.48;2318283;76;22436;-75
2023/07/15 04:46:04;;;;;;;;;;;;;;;25.46;40.60;100415.70;2342888;76;50197;-77
2023/07/15 04:49:06;;;;;;;;;;;;;;;25.33;40.85;100417.59;2305484;76;52399;-77
2023/07/15 04:52:08;;;;;;;;;;;;;;;25.27;41.02;100409.57;2244251;78;50250;-77
2023/07/15 04:55:10;;;;;;;;;;;;;;;25.32;41.01;100415.11;2243933;78;50721;-76
2023/07/15 04:58:12;;;;;;;;;;;;;;;25.40;40.91;100412.88;2264776;78;51477;-77
2023/07/15 05:01:13;;;;;;;;;;;;;;;25.34;41.13;100407.05;2264936;77;51539;-77
2023/07/15 05:04:15;;;;;;;;;;;;;;;25.38;41.04;100415.52;2243823;78;51449;-77
2023/07/15 05:07:16;;;;;;;;;;;;;;;25.52;40.88;100417.49;2264735;78;50501;-77
2023/07/15 05:10:18;;;;;;;;;;;;;;;25.64;40.73;100411.55;2277948;77;51428;-76
2023/07/15 05:13:20;;;;;;;;;;;;;;;25.74;40.60;100419.06;2257214;77;51535;-76
2023/07/15 05:16:21;;;;;;;;;;;;;;;25.84;40.69;100416.11;2267776;77;51472;-76
2023/07/15 05:19:23;;;;;;;;;;;;;;;25.93;40.69;100413.84;2268132;77;51466;-76
2023/07/15 05:22:24;;;;;;;;;;;;;;;26.00;40.76;100413.20;2267833;77;52306;-77
2023/07/15 05:25:26;;;;;;;;;;;;;;;26.09;40.84;100412.28;2243090;77;52386;-76
2023/07/15 05:28:30;;;;;;;;;;;;;;;26.16;40.80;100408.91;2267671;77;51490;-78
2023/07/15 05:31:31;;;;;;;;;;;;;;;26.23;40.90;100408.25;2301469;77;23058;-78
2023/07/15 05:34:32;;;;;;;;;;;;;;;26.26;40.97;100408.30;2303213;77;51451;-76
2023/07/15 05:37:34;;;;;;;;;;;;;;;26.27;41.01;100409.94;2269224;77;51218;-75
2023/07/15 05:40:37;;;;;;;;;;;;;;;26.30;41.01;100402.67;2259165;77;50319;-75
2023/07/15 05:43:39;;;;;;;;;;;;;;;26.35;41.00;100412.27;2272175;77;50366;-76
2023/07/15 05:46:40;;;;;;;;;;;;;;;26.40;40.96;100412.38;2243302;78;50588;-75
2023/07/15 05:49:42;;;;;;;;;;;;;;;26.48;40.83;100411.98;2219689;78;51654;-76
2023/07/15 05:52:44;;;;;;;;;;;;;;;26.53;40.80;100418.08;2265255;78;50200;-76
2023/07/15 05:55:45;;;;;;;;;;;;;;;26.55;40.78;100414.59;2265374;78;50631;-75
2023/07/15 05:58:47;;;;;;;;;;;;;;;26.63;40.64;100407.42;2264949;78;50573;-75
2023/07/15 06:01:48;;;;;;;;;;;;;;;26.69;40.56;100411.05;2209696;78;52470;-77
2023/07/15 06:04:50;;;;;;;;;;;;;;;26.70;40.56;100418.96;2244824;78;50305;-76
2023/07/15 06:07:52;;;;;;;;;;;;;;;26.78;40.45;100415.57;2265433;78;50271;-75
2023/07/15 06:10:54;;;;;;;;;;;;;;;26.81;40.41;100410.47;2285334;77;50712;-75
2023/07/15 06:13:55;;;;;;;;;;;;;;;26.87;40.29;100405.95;2237804;78;52711;-76
2023/07/15 06:16:57;;;;;;;;;;;;;;;26.91;40.21;100411.19;2233055;78;51510;-74
2023/07/15 06:19:58;;;;;;;;;;;;;;;26.97;40.14;100410.73;2233582;78;51616;-76
2023/07/15 06:23:00;;;;;;;;;;;;;;;26.99;40.15;100409.42;2266087;78;51478;-76
2023/07/15 06:26:01;;;;;;;;;;;;;;;27.01;40.09;100412.73;2209589;78;51213;-76
2023/07/15 06:29:03;;;;;;;;;;;;;;;27.03;40.01;100403.81;2233023;78;50282;-76
2023/07/15 06:32:05;;;;;;;;;;;;;;;27.05;39.98;100396.75;2265624;78;50589;-75
2023/07/15 06:35:06;;;;;;;;;;;;;;;27.09;39.96;100398.73;2233040;78;51609;-76
2023/07/15 06:38:08;;;;;;;;;;;;;;;27.12;39.88;100400.14;2211144;78;50154;-76
2023/07/15 06:41:09;;;;;;;;;;;;;;;27.14;39.84;100396.65;2245753;77;51492;-75
2023/07/15 06:44:11;;;;;;;;;;;;;;;27.16;39.82;100394.52;2234455;78;51369;-76
2023/07/15 06:47:13;;;;;;;;;;;;;;;27.20;39.77;100399.75;2265250;78;50325;-75
2023/07/15 06:50:14;;;;;;;;;;;;;;;27.22;39.73;100396.27;2233135;78;51058;-76
2023/07/15 06:53:16;;;;;;;;;;;;;;;27.24;39.69;100394.13;2265189;78;50197;-75
2023/07/15 06:56:17;;;;;;;;;;;;;;;27.27;39.65;100395.53;2255689;78;50509;-76
2023/07/15 06:59:19;;;;;;;;;;;;;;;27.30;39.61;100390.95;2265113;78;51515;-76
2023/07/15 07:02:20;;;;;;;;;;;;;;;27.31;39.56;100391.26;2231213;78;52361;-75
2023/07/15 07:05:22;;;;;;;;;;;;;;;27.33;39.58;100389.09;2255965;78;51537;-77
2023/07/15 07:08:24;;;;;;;;;;;;;;;27.36;39.50;100392.70;2264857;78;51476;-76
2023/07/15 07:11:25;;;;;;;;;;;;;;;27.39;39.44;100390.02;2268756;77;50258;-75
2023/07/15 07:14:27;;;;;;;;;;;;;;;27.40;39.43;100392.47;2232950;78;52361;-75
2023/07/15 07:17:29;;;;;;;;;;;;;;;27.43;39.45;100391.97;2264925;78;50017;-76
2023/07/15 07:20:30;;;;;;;;;;;;;;;27.44;39.36;100384.66;2265091;78;51519;-75
2023/07/15 07:23:32;;;;;;;;;;;;;;;27.47;39.31;100389.05;2265045;78;51478;-77
2023/07/15 07:26:34;;;;;;;;;;;;;;;27.48;39.31;100381.17;2232360;78;50097;-76
2023/07/15 07:29:35;;;;;;;;;;;;;;;27.49;39.25;100376.05;2232637;78;50266;-76
2023/07/15 07:32:37;;;;;;;;;;;;;;;27.50;39.22;100372.24;2264947;78;50278;-76
2023/07/15 07:35:38;;;;;;;;;;;;;;;27.50;39.25;100368.16;2264970;78;50645;-76
2023/07/15 07:38:40;;;;;;;;;;;;;;;27.51;39.19;100375.27;2208572;78;52537;-76
2023/07/15 07:41:41;;;;;;;;;;;;;;;27.50;39.19;100374.96;2246379;77;50637;-76
2023/07/15 07:44:43;;;;;;;;;;;;;;;27.53;39.17;100375.00;2267730;77;50656;-76
2023/07/15 07:47:45;;;;;;;;;;;;;;;27.52;39.18;100376.08;2300988;77;51430;-75
2023/07/15 07:50:46;;;;;;;;;;;;;;;27.54;39.15;100372.05;2267561;77;51644;-76
2023/07/15 07:53:48;;;;;;;;;;;;;;;27.56;39.10;100364.44;2267732;77;51478;-76
2023/07/15 07:56:49;;;;;;;;;;;;;;;27.56;39.09;100363.08;2267779;77;52144;-76
2023/07/15 07:59:51;;;;;;;;;;;;;;;27.55;39.12;100365.52;2268565;77;51460;-75
2023/07/15 08:02:53;;;;;;;;;;;;;;;27.54;39.12;100354.38;2243454;77;51655;-75
2023/07/15 08:05:54;;;;;;;;;;;;;;;27.54;39.14;100358.45;2301369;77;51515;-76
2023/07/15 08:08:56;;;;;;;;;;;;;;;27.53;39.13;100359.51;2301116;77;51425;-76
2023/07/15 08:11:58;;;;;;;;;;;;;;;27.55;39.06;100354.65;2263447;77;51391;-75
2023/07/15 08:15:00;;;;;;;;;;;;;;;27.52;39.14;100343.47;2245159;77;52769;-77
2023/07/15 08:18:02;;;;;;;;;;;;;;;27.51;39.17;100339.94;2269467;77;49917;-75
2023/07/15 08:21:04;;;;;;;;;;;;;;;27.51;39.18;100337.73;2303512;76;50769;-76
2023/07/15 08:24:05;;;;;;;;;;;;;;;27.52;39.16;100339.39;2270057;77;52411;-77
2023/07/15 08:27:07;;;;;;;;;;;;;;;27.50;39.18;100335.55;2244957;77;51688;-76
2023/07/15 08:30:09;;;;;;;;;;;;;;;27.50;39.20;100338.27;2302974;77;50301;-75
2023/07/15 08:33:11;;;;;;;;;;;;;;;27.51;39.17;100341.30;2269644;77;51584;-75
2023/07/15 08:36:12;;;;;;;;;;;;;;;27.49;39.16;100340.72;2302759;77;52550;-76
2023/07/15 08:39:14;;;;;;;;;;;;;;;27.53;39.12;100344.56;2269292;77;52351;-75
2023/07/15 08:42:15;;;;;;;;;;;;;;;27.51;39.15;100349.45;2294336;77;50410;-76
2023/07/15 08:45:20;;;;;;;;;;;;;;;27.52;39.11;100338.85;2264954;78;50187;-75
2023/07/15 08:48:22;;;;;;;;;;;;;;;27.52;39.09;100340.75;2264836;78;50321;-75
2023/07/15 08:51:25;;;;;;;;;;;;;;;27.51;39.13;100339.09;2232477;78;51139;-76
2023/07/15 08:54:27;;;;;;;;;;;;;;;27.49;39.17;100336.64;2263923;78;50451;-75
2023/07/15 08:57:28;;;;;;;;;;;;;;;27.47;39.28;100344.21;2264773;78;50413;-76
2023/07/15 09:00:30;;;;;;;;;;;;;;;27.45;39.22;100328.69;2265070;78;49908;-75
2023/07/15 09:03:31;;;;;;;;;;;;;;;27.43;39.32;100332.73;2232448;78;51648;-75
2023/07/15 09:06:33;;;;;;;;;;;;;;;27.43;39.29;100340.88;2264695;78;51522;-76
2023/07/15 09:09:36;;;;;;;;;;;;;;;27.42;39.36;100338.70;2265027;78;50368;-75
2023/07/15 09:12:37;;;;;;;;;;;;;;;27.41;39.35;100334.36;2255490;77;52422;-77
2023/07/15 09:15:39;;;;;;;;;;;;;;;27.38;39.34;100314.99;2267456;77;50936;-76
2023/07/15 09:18:40;;;;;;;;;;;;;;;27.39;39.34;100315.30;2267322;77;50033;-76
2023/07/15 09:21:52;;;;;;;;;;;;;;;27.36;39.44;100331.56;2301074;77;50695;-76
2023/07/15 09:24:54;;;;;;;;;;;;;;;27.33;39.50;100319.81;2267939;77;51525;-76
2023/07/15 09:27:56;;;;;;;;;;;;;;;27.34;39.43;100319.58;2267515;77;51445;-75
2023/07/15 09:30:59;;;;;;;;;;;;;;;27.34;39.46;100329.08;2267881;77;51552;-75
2023/07/15 09:34:03;;;;;;;;;;;;;;;27.33;39.48;100322.02;2301031;77;50756;-76
2023/07/15 09:37:05;;;;;;;;;;;;;;;27.30;39.57;100318.41;2300852;77;50720;-75
2023/07/15 09:40:10;;;;;;;;;;;;;;;27.33;39.51;100314.38;2295986;77;51451;-76
2023/07/15 09:43:11;;;;;;;;;;;;;;;27.30;39.53;100307.55;2254667;77;51571;-76
2023/07/15 09:46:14;;;;;;;;;;;;;;;27.29;39.53;100308.63;2302770;77;51399;-75
2023/07/15 09:49:16;;;;;;;;;;;;;;;27.29;39.52;100309.17;2303000;77;50319;-75
2023/07/15 09:52:18;;;;;;;;;;;;;;;27.27;39.61;100303.98;2302963;77;50260;-75
2023/07/15 09:55:19;;;;;;;;;;;;;;;27.28;39.58;100311.59;2302874;77;50724;-75
2023/07/15 09:58:24;;;;;;;;;;;;;;;27.26;39.63;100305.61;2302668;77;50643;-76
2023/07/15 10:01:42;;;;;;;;;;;;;;;27.25;39.63;100312.91;2302875;76;50704;-76
2023/07/15 10:04:44;;;;;;;;;;;;;;;27.26;39.58;100306.97;2302876;77;50237;-74
2023/07/15 10:07:46;;;;;;;;;;;;;;;27.26;39.64;100313.75;2269175;77;51505;-75
2023/07/15 10:10:49;;;;;;;;;;;;;;;27.22;39.70;100322.92;2302084;77;51440;-76
2023/07/15 10:13:50;;;;;;;;;;;;;;;27.22;39.70;100316.67;2237531;78;51780;-76
2023/07/15 10:17:11;;;;;;;;;;;;;;;27.21;39.68;100315.03;2232320;78;51028;-76
2023/07/15 10:20:17;;;;;;;;;;;;;;;27.20;39.74;100313.38;2256065;78;50676;-76
2023/07/15 10:23:20;;;;;;;;;;;;;;;27.20;39.74;100318.27;2265355;78;22504;-76
2023/07/15 10:26:22;;;;;;;;;;;;;;;27.19;39.76;100311.74;2264477;78;50319;-75
2023/07/15 10:29:23;;;;;;;;;;;;;;;27.20;39.70;100310.66;2231004;78;50095;-74
2023/07/15 10:32:25;;;;;;;;;;;;;;;27.19;39.81;100314.45;2264930;78;50096;-76
2023/07/15 10:35:28;;;;;;;;;;;;;;;27.18;39.75;100322.30;2265069;78;50503;-76
2023/07/15 10:38:31;;;;;;;;;;;;;;;27.17;39.84;100326.07;2263521;78;50675;-75
2023/07/15 10:41:34;;;;;;;;;;;;;;;27.17;39.83;100319.28;2244907;77;51113;-76
2023/07/15 10:44:44;;;;;;;;;;;;;;;27.16;39.80;100329.33;2297077;77;51534;-75
2023/07/15 10:47:46;;;;;;;;;;;;;;;27.17;39.81;100319.28;2300965;77;50483;-75
2023/07/15 10:50:49;;;;;;;;;;;;;;;27.15;39.84;100321.72;2301222;77;50268;-75
2023/07/15 10:53:50;;;;;;;;;;;;;;;27.16;39.85;100322.53;2264067;77;51713;-75
2023/07/15 10:56:52;;;;;;;;;;;;;;;27.15;39.84;100314.08;2300870;77;50215;-76
2023/07/15 10:59:54;;;;;;;;;;;;;;;27.17;39.80;100317.38;2300931;77;50726;-75
2023/07/15 11:02:55;;;;;;;;;;;;;;;27.15;39.83;100317.64;2301000;77;51388;-76
2023/07/15 11:06:05;;;;;;;;;;;;;;;27.16;39.79;100334.76;2267407;77;51447;-75
2023/07/15 11:09:19;;;;;;;;;;;;;;;27.17;39.78;100326.89;2267110;77;22254;-75
2023/07/15 11:12:21;;;;;;;;;;;;;;;27.14;39.79;100317.88;2283181;77;51497;-75
2023/07/15 11:15:23;;;;;;;;;;;;;;;27.15;39.79;100310.01;2243801;78;50413;-76
2023/07/15 11:18:26;;;;;;;;;;;;;;;27.15;39.74;100310.86;2243440;78;51633;-76
2023/07/15 11:21:28;;;;;;;;;;;;;;;27.14;39.78;100312.45;2244127;78;51478;-74
2023/07/15 11:24:29;;;;;;;;;;;;;;;27.18;39.71;100319.58;2265020;78;50312;-75
2023/07/15 11:27:31;;;;;;;;;;;;;;;27.17;39.72;100311.13;2264803;78;50397;-76
2023/07/15 11:30:36;;;;;;;;;;;;;;;27.16;39.73;100314.39;2265091;78;50726;-75
2023/07/15 11:33:38;;;;;;;;;;;;;;;27.19;39.69;100314.45;2243854;78;51572;-76
2023/07/15 11:36:39;;;;;;;;;;;;;;;27.17;39.69;100316.02;2264789;78;50294;-76
2023/07/15 11:39:41;;;;;;;;;;;;;;;27.17;39.69;100311.13;2265020;78;51514;-76
2023/07/15 11:42:42;;;;;;;;;;;;;;;27.19;39.69;100310.38;2286378;77;51424;-76
2023/07/15 11:45:44;;;;;;;;;;;;;;;27.15;39.73;100304.06;2267973;77;50165;-76
2023/07/15 11:48:46;;;;;;;;;;;;;;;27.15;39.70;100297.78;2267425;77;50285;-74
2023/07/15 11:51:47;;;;;;;;;;;;;;;27.15;39.64;100292.36;2267646;77;52442;-76
2023/07/15 11:54:49;;;;;;;;;;;;;;;27.18;39.54;100288.34;2243000;77;49378;-76
2023/07/15 11:57:51;;;;;;;;;;;;;;;27.19;39.51;100287.30;2267431;77;51592;-76
2023/07/15 12:00:53;;;;;;;;;;;;;;;27.17;39.57;100295.65;2301133;77;50178;-75
2023/07/15 12:03:55;;;;;;;;;;;;;;;27.18;39.49;100284.28;2301193;77;50678;-76
2023/07/15 12:06:56;;;;;;;;;;;;;;;27.18;39.46;100291.91;2267431;77;51718;-76
2023/07/15 12:10:07;;;;;;;;;;;;;;;27.17;39.47;100292.12;2268447;77;51586;-74
2023/07/15 12:13:09;;;;;;;;;;;;;;;27.18;39.46;100290.55;2277874;77;51482;-75
2023/07/15 12:16:10;;;;;;;;;;;;;;;27.20;39.45;100297.08;2264898;78;51588;-76
2023/07/15 12:19:12;;;;;;;;;;;;;;;27.20;39.46;100284.85;2264907;78;51453;-75
2023/07/15 12:22:14;;;;;;;;;;;;;;;27.22;39.43;100282.72;2232480;78;52600;-76
2023/07/15 12:25:16;;;;;;;;;;;;;;;27.21;39.42;100272.39;2208651;78;51729;-76
2023/07/15 12:28:17;;;;;;;;;;;;;;;27.24;39.35;100277.86;2232288;78;51475;-76
2023/07/15 12:31:19;;;;;;;;;;;;;;;27.20;39.38;100276.16;2232582;78;51478;-75
2023/07/15 12:34:20;;;;;;;;;;;;;;;27.21;39.38;100272.94;2265065;78;50720;-76
2023/07/15 12:37:22;;;;;;;;;;;;;;;27.21;39.42;100259.35;2264849;78;50323;-76
2023/07/15 12:40:24;;;;;;;;;;;;;;;27.21;39.44;100258.00;2237408;77;50642;-76
2023/07/15 12:43:26;;;;;;;;;;;;;;;27.21;39.45;100263.43;2302195;76;50148;-75
2023/07/15 12:46:27;;;;;;;;;;;;;;;27.18;39.47;100244.89;2269336;77;52470;-76
2023/07/15 12:49:29;;;;;;;;;;;;;;;27.22;39.41;100247.41;2303051;77;50479;-75
2023/07/15 12:52:31;;;;;;;;;;;;;;;27.23;39.38;100254.47;2269935;77;50274;-74
2023/07/15 12:55:32;;;;;;;;;;;;;;;27.22;39.42;100252.30;2269743;77;51529;-76
2023/07/15 12:58:34;;;;;;;;;;;;;;;27.25;39.37;100245.00;2269158;77;51189;-76
2023/07/15 13:01:36;;;;;;;;;;;;;;;27.23;39.40;100240.89;2302852;77;50383;-76
2023/07/15 13:04:37;;;;;;;;;;;;;;;27.24;39.35;100244.72;2302832;77;52526;-74
2023/07/15 13:07:39;;;;;;;;;;;;;;;27.25;39.37;100238.75;2302711;77;50273;-76
2023/07/15 13:10:41;;;;;;;;;;;;;;;27.26;39.29;100233.08;2237660;77;50085;-76
2023/07/15 13:13:42;;;;;;;;;;;;;;;27.22;39.40;100229.75;2263123;77;51488;-75
2023/07/15 13:16:44;;;;;;;;;;;;;;;27.25;39.40;100233.31;2267595;77;50256;-76
2023/07/15 13:19:46;;;;;;;;;;;;;;;27.27;39.35;100232.53;2267940;77;50470;-75
2023/07/15 13:22:47;;;;;;;;;;;;;;;27.26;39.40;100230.91;2243149;77;49573;-75
2023/07/15 13:25:49;;;;;;;;;;;;;;;27.28;39.40;100222.78;2301028;77;50285;-76
2023/07/15 13:28:50;;;;;;;;;;;;;;;27.29;39.35;100231.75;2300673;77;50288;-76
2023/07/15 13:31:52;;;;;;;;;;;;;;;27.30;39.34;100242.89;2301045;77;50709;-75
2023/07/15 13:34:53;;;;;;;;;;;;;;;27.28;39.42;100237.73;2243187;77;52415;-75
2023/07/15 13:37:55;;;;;;;;;;;;;;;27.29;39.43;100235.83;2267334;77;51416;-75
2023/07/15 13:40:57;;;;;;;;;;;;;;;27.29;39.41;100224.96;2291650;77;51596;-76
2023/07/15 13:43:58;;;;;;;;;;;;;;;27.30;39.38;100223.87;2298465;77;51514;-75
2023/07/15 13:47:00;;;;;;;;;;;;;;;27.28;39.43;100226.02;2242868;77;51161;-75
2023/07/15 13:50:03;;;;;;;;;;;;;;;27.29;39.40;100218.17;2301145;77;51439;-76
2023/07/15 13:53:04;;;;;;;;;;;;;;;27.31;39.29;100218.20;2301121;77;50396;-75
2023/07/15 13:56:06;;;;;;;;;;;;;;;27.27;39.39;100221.66;2301012;77;50243;-77
2023/07/15 13:59:08;;;;;;;;;;;;;;;27.27;39.42;100217.59;2267237;77;51171;-75
2023/07/15 14:02:11;;;;;;;;;;;;;;;27.28;39.42;100228.73;2267666;77;50254;-75
2023/07/15 14:05:12;;;;;;;;;;;;;;;27.27;39.40;100225.20;2300629;77;50291;-75
2023/07/15 14:08:15;;;;;;;;;;;;;;;27.25;39.42;100211.58;2300935;77;50373;-75
2023/07/15 14:11:17;;;;;;;;;;;;;;;27.26;39.39;100218.13;2286945;77;51566;-76
2023/07/15 14:14:19;;;;;;;;;;;;;;;27.25;39.41;100218.38;2301023;77;51537;-76
2023/07/15 14:17:20;;;;;;;;;;;;;;;27.22;39.43;100212.09;2300906;77;50011;-76
2023/07/15 14:20:22;;;;;;;;;;;;;;;27.24;39.40;100204.52;2267836;77;50426;-76
2023/07/15 14:23:24;;;;;;;;;;;;;;;27.25;39.33;100211.58;2243177;77;51649;-76
2023/07/15 14:26:25;;;;;;;;;;;;;;;27.25;39.32;100215.11;2300950;77;50252;-76
2023/07/15 14:29:27;;;;;;;;;;;;;;;27.25;39.33;100212.94;2267974;77;50270;-76
2023/07/15 14:32:28;;;;;;;;;;;;;;;27.23;39.35;100217.29;2301173;77;50743;-76
2023/07/15 14:35:30;;;;;;;;;;;;;;;27.24;39.30;100214.84;2267879;77;51457;-76
2023/07/15 14:38:32;;;;;;;;;;;;;;;27.24;39.32;100216.74;2267743;77;51512;-76
2023/07/15 14:41:33;;;;;;;;;;;;;;;27.25;39.27;100207.51;2286780;77;51479;-76
2023/07/15 14:44:35;;;;;;;;;;;;;;;27.26;39.25;100191.52;2301449;77;50750;-75
2023/07/15 14:47:37;;;;;;;;;;;;;;;27.26;39.24;100186.90;2268157;77;51831;-74
2023/07/15 14:50:39;;;;;;;;;;;;;;;27.28;39.24;100184.75;2302767;77;50773;-75
2023/07/15 14:53:40;;;;;;;;;;;;;;;27.28;39.20;100171.69;2304935;77;50702;-75
2023/07/15 14:56:42;;;;;;;;;;;;;;;27.30;39.17;100174.98;2268179;77;51366;-75
2023/07/15 14:59:44;;;;;;;;;;;;;;;27.30;39.17;100174.44;2268133;77;51175;-75
2023/07/15 15:02:45;;;;;;;;;;;;;;;27.33;39.14;100175.31;2301591;77;49965;-75
2023/07/15 15:05:47;;;;;;;;;;;;;;;27.36;39.13;100173.98;2304652;77;50369;-76
2023/07/15 15:08:48;;;;;;;;;;;;;;;27.35;39.16;100182.64;2269928;77;50673;-75
2023/07/15 15:11:50;;;;;;;;;;;;;;;27.35;39.19;100188.63;2253805;77;51806;-75
2023/07/15 15:14:51;;;;;;;;;;;;;;;27.35;39.20;100181.28;2301910;77;51519;-74
2023/07/15 15:17:53;;;;;;;;;;;;;;;27.36;39.21;100176.70;2268501;77;52127;-74
2023/07/15 15:20:55;;;;;;;;;;;;;;;27.37;39.20;100172.89;2268648;77;50278;-74
2023/07/15 15:23:56;;;;;;;;;;;;;;;27.38;39.20;100169.63;2245780;77;51218;-75
2023/07/15 15:26:58;;;;;;;;;;;;;;;27.38;39.22;100157.41;2271588;77;50236;-75
2023/07/15 15:29:59;;;;;;;;;;;;;;;27.35;39.28;100158.73;2301818;77;50650;-75
2023/07/15 15:33:01;;;;;;;;;;;;;;;27.33;39.30;100164.44;2268074;77;50116;-75
2023/07/15 15:36:03;;;;;;;;;;;;;;;27.33;39.32;100150.02;2243060;77;51165;-75